This is the latest recevied weather packets stored in our database for station/object NO3B-10. If no packets are shown the sender has not sent any weather packets the latest 10 day(s).
| Time | Temp. | Humidity | Pressure | Rain* | Wind** | Luminosity | Snow |
|---|---|---|---|---|---|---|---|
| 1777554406 | 14.44° C | 84% | 1006.3 hPa | 0 mm | - | - | - |
| 1777551709 | 13.33° C | 96% | 1006.1 hPa | 0 mm | - | - | - |
| 1777550809 | 12.78° C | 98% | 1006.2 hPa | 0 mm | - | - | - |
| 1777548104 | 11.67° C | 98% | 1005.8 hPa | 0 mm | - | - | - |
| 1777546304 | 11.67° C | 99% | 1005.4 hPa | 0 mm | - | - | - |
| 1777545406 | 11.67° C | 99% | 1005.6 hPa | 0 mm | - | - | - |
| 1777541805 | 11.11° C | 98% | 1005.3 hPa | 0 mm | - | - | - |
| 1777540906 | 11.67° C | 99% | 1005.3 hPa | 0 mm | - | - | - |
| 1777540005 | 11.67° C | 98% | 1005.4 hPa | 0 mm | - | - | - |
| 1777539105 | 11.67° C | 99% | 1005.5 hPa | 0 mm | - | - | - |
| 1777536405 | 11.67° C | 99% | 1005 hPa | 0 mm | - | - | - |
| 1777534605 | 12.22° C | 98% | 1004.4 hPa | 0 mm | - | - | - |
| 1777533705 | 12.78° C | 98% | 1004.1 hPa | 0 mm | - | - | - |
| 1777531905 | 12.78° C | 99% | 1003.9 hPa | 0 mm | - | - | - |
| 1777531007 | 12.22° C | 98% | 1003.9 hPa | 0 mm | - | - | - |
| 1777530106 | 12.22° C | 98% | 1004.1 hPa | 0 mm | - | - | - |
| 1777503108 | 15.56° C | 94% | 1004.5 hPa | 1.02 mm | - | - | - |
| 1777502209 | 16.11° C | 95% | 1004.6 hPa | 1.02 mm | - | - | - |
| 1777453612 | 10° C | 83% | 1012.1 hPa | 0 mm | - | - | - |
| 1777452748 | 10° C | 85% | 1011.9 hPa | 0 mm | - | - | - |
| 1777452711 | 10° C | 85% | 1011.9 hPa | 0 mm | - | - | - |
| 1777450911 | 10° C | 86% | 1012 hPa | 0 mm | - | - | - |
| 1777447312 | 9.44° C | 86% | 1012.3 hPa | 0 mm | - | - | - |
| 1777445510 | 9.44° C | 85% | 1012.6 hPa | 0 mm | - | - | - |
| 1777443712 | 10° C | 84% | 1013 hPa | 0 mm | - | - | - |
* Rain latest hour (hover to see other rain measurements)
** Current wind speed in m/s (hover to see current wind gust speed)